createdAt,value
2022-09-10T00:00:07.333Z,17.40
2022-09-10T00:07:22.236Z,17.40
2022-09-10T00:14:24.867Z,17.30
2022-09-10T00:21:24.541Z,17.20
2022-09-10T00:28:18.860Z,17.10
2022-09-10T00:35:21.955Z,17.10
2022-09-10T00:42:17.545Z,17.10
2022-09-10T00:49:20.336Z,17.10
2022-09-10T00:56:22.926Z,17.10
2022-09-10T01:03:20.537Z,17.10
2022-09-10T01:10:26.812Z,17.10
2022-09-10T01:17:35.032Z,17.08
2022-09-10T01:24:59.143Z,16.98
2022-09-10T01:32:04.773Z,17.00
2022-09-10T01:39:13.455Z,16.98
2022-09-10T01:46:16.340Z,16.90
2022-09-10T01:53:18.882Z,16.92
2022-09-10T02:00:24.376Z,16.90
2022-09-10T02:07:27.653Z,16.70
2022-09-10T02:14:12.756Z,16.70
2022-09-10T02:21:15.405Z,16.60
2022-09-10T02:28:18.320Z,16.60
2022-09-10T02:35:21.164Z,16.50
2022-09-10T02:42:02.642Z,16.40
2022-09-10T02:49:04.391Z,16.50
2022-09-10T02:56:06.171Z,16.50
2022-09-10T03:03:08.878Z,16.40
2022-09-10T03:10:11.681Z,16.40
2022-09-10T03:17:14.379Z,16.50
2022-09-10T03:24:17.526Z,16.60
2022-09-10T03:31:12.855Z,16.50
2022-09-10T03:38:15.989Z,16.50
2022-09-10T03:45:19.131Z,16.50
2022-09-10T03:52:21.615Z,16.40
2022-09-10T03:59:22.804Z,16.30
2022-09-10T04:06:25.794Z,16.40
2022-09-10T04:13:28.593Z,16.50
2022-09-10T04:20:31.523Z,16.46
2022-09-10T04:27:35.632Z,16.44
2022-09-10T04:34:24.377Z,16.30
2022-09-10T04:41:16.202Z,16.30
2022-09-10T04:48:19.066Z,16.20
2022-09-10T04:55:14.160Z,16.20
2022-09-10T05:02:10.846Z,16.20
2022-09-10T05:09:05.961Z,16.30
2022-09-10T05:15:57.978Z,16.30
2022-09-10T05:22:59.827Z,16.40
2022-09-10T05:30:02.994Z,16.50
2022-09-10T05:36:41.804Z,16.30
2022-09-10T05:43:44.479Z,16.40
2022-09-10T05:50:47.055Z,16.50
2022-09-10T05:57:43.654Z,16.50
2022-09-10T06:04:46.757Z,16.40
2022-09-10T06:11:55.944Z,16.36
2022-09-10T06:18:59.526Z,16.40
2022-09-10T06:26:02.830Z,16.60
2022-09-10T06:33:05.798Z,16.70
2022-09-10T06:39:53.886Z,16.88
2022-09-10T06:47:46.276Z,16.92
2022-09-10T06:54:11.190Z,17.10
2022-09-10T07:01:14.061Z,17.20
2022-09-10T07:08:09.907Z,17.20
2022-09-10T07:15:12.890Z,17.28
2022-09-10T07:22:07.316Z,17.36
2022-09-10T07:29:09.943Z,17.40
2022-09-10T07:35:52.554Z,17.50
2022-09-10T07:42:55.753Z,17.58
2022-09-10T07:49:57.860Z,17.60
2022-09-10T07:57:00.964Z,17.70
2022-09-10T08:03:56.244Z,17.80
2022-09-10T08:10:44.691Z,17.90
2022-09-10T08:17:47.532Z,18.00
2022-09-10T08:24:42.941Z,18.06
2022-09-10T08:32:03.833Z,18.20
2022-09-10T08:39:03.063Z,18.30
2022-09-10T08:46:10.396Z,18.30
2022-09-10T08:53:13.425Z,18.50
2022-09-10T09:00:16.172Z,18.62
2022-09-10T09:07:30.871Z,18.60
2022-09-10T09:14:44.149Z,18.84
2022-09-10T09:21:58.559Z,19.04
2022-09-10T09:28:38.643Z,19.20
2022-09-10T09:35:38.652Z,19.32
2022-09-10T09:42:59.219Z,19.50
2022-09-10T09:50:02.158Z,19.60
2022-09-10T09:57:37.039Z,19.70
2022-09-10T10:05:00.407Z,19.70
2022-09-10T10:12:03.470Z,19.80
2022-09-10T10:19:09.206Z,20.08
2022-09-10T10:26:19.556Z,20.30
2022-09-10T10:33:22.306Z,20.50
2022-09-10T10:40:31.109Z,20.60
2022-09-10T10:48:01.686Z,20.70
2022-09-10T10:55:13.763Z,20.80
2022-09-10T11:02:19.360Z,20.70
2022-09-10T11:09:19.048Z,20.66
2022-09-10T11:16:24.765Z,20.60
2022-09-10T11:23:23.387Z,20.80
2022-09-10T11:30:47.630Z,20.94
2022-09-10T11:37:44.364Z,21.02
2022-09-10T11:44:45.084Z,21.10
2022-09-10T11:51:52.952Z,21.00
2022-09-10T11:58:56.505Z,21.04
2022-09-10T12:06:23.390Z,21.10
2022-09-10T12:13:38.391Z,21.30
2022-09-10T12:20:41.391Z,21.30
2022-09-10T12:27:24.149Z,21.30
2022-09-10T12:34:27.040Z,21.30
2022-09-10T12:41:51.084Z,21.42
2022-09-10T12:48:50.933Z,21.50
2022-09-10T12:56:19.603Z,21.70
2022-09-10T13:03:10.532Z,21.70
2022-09-10T13:10:21.913Z,21.60
2022-09-10T13:17:21.122Z,21.60
2022-09-10T13:24:44.697Z,21.70
2022-09-10T13:31:46.087Z,22.00
2022-09-10T13:39:11.983Z,21.94
2022-09-10T13:46:17.711Z,21.90
2022-09-10T13:53:08.330Z,21.72
2022-09-10T14:00:11.064Z,21.74
2022-09-10T14:07:19.825Z,21.80
2022-09-10T14:14:23.812Z,21.80
2022-09-10T14:21:28.199Z,21.70
2022-09-10T14:28:29.233Z,21.60
2022-09-10T14:35:34.731Z,21.50
2022-09-10T14:42:48.675Z,21.30
2022-09-10T14:50:07.025Z,21.10
2022-09-10T14:57:15.551Z,20.90
2022-09-10T15:04:01.221Z,20.80
2022-09-10T15:10:56.090Z,20.78
2022-09-10T15:17:58.934Z,20.70
2022-09-10T15:25:07.954Z,20.68
2022-09-10T15:31:59.427Z,20.70
2022-09-10T15:38:54.803Z,20.70
2022-09-10T15:45:57.722Z,20.60
2022-09-10T15:53:00.327Z,20.60
2022-09-10T16:00:03.552Z,20.50
2022-09-10T16:07:06.422Z,20.30
2022-09-10T16:14:04.663Z,19.90
2022-09-10T16:21:06.501Z,19.72
2022-09-10T16:28:01.997Z,19.70
2022-09-10T16:35:03.551Z,19.68
2022-09-10T16:42:06.607Z,19.50
2022-09-10T16:49:09.818Z,19.30
2022-09-10T16:55:56.873Z,19.00
2022-09-10T17:02:32.044Z,18.80
2022-09-10T17:09:34.885Z,18.50
2022-09-10T17:16:30.739Z,18.40
2022-09-10T17:22:56.259Z,18.30
2022-09-10T17:30:05.964Z,18.12
2022-09-10T17:37:07.665Z,18.00
2022-09-10T17:43:46.405Z,18.00
2022-09-10T17:50:49.313Z,17.96
2022-09-10T17:57:44.568Z,17.84
2022-09-10T18:04:47.752Z,17.70
2022-09-10T18:11:27.146Z,17.60
2022-09-10T18:18:29.774Z,17.40
2022-09-10T18:25:32.664Z,17.20
2022-09-10T18:32:16.614Z,17.10
2022-09-10T18:39:19.572Z,17.00
2022-09-10T18:46:22.486Z,16.88
2022-09-10T18:53:15.268Z,16.80
2022-09-10T19:00:09.275Z,16.70
2022-09-10T19:07:11.516Z,16.60
2022-09-10T19:14:14.294Z,16.52
2022-09-10T19:21:09.703Z,16.50
2022-09-10T19:28:03.935Z,16.40
2022-09-10T19:35:06.964Z,16.30
2022-09-10T19:42:09.820Z,16.30
2022-09-10T19:49:12.664Z,16.10
2022-09-10T19:56:06.607Z,16.00
2022-09-10T20:02:54.214Z,15.90
2022-09-10T20:09:49.636Z,15.90
2022-09-10T20:16:52.311Z,15.80
2022-09-10T20:23:55.287Z,15.70
2022-09-10T20:30:58.498Z,15.70
2022-09-10T20:38:01.687Z,15.60
2022-09-10T20:44:44.202Z,15.40
2022-09-10T20:51:32.212Z,15.40
2022-09-10T20:58:27.670Z,15.30
2022-09-10T21:05:31.054Z,15.30
2022-09-10T21:12:35.826Z,15.30
2022-09-10T21:19:38.548Z,15.20
2022-09-10T21:26:41.527Z,15.20
2022-09-10T21:33:36.697Z,15.20
2022-09-10T21:40:39.656Z,15.20
2022-09-10T21:47:34.653Z,15.10
2022-09-10T21:54:37.600Z,15.00
2022-09-10T22:01:38.006Z,14.90
2022-09-10T22:08:40.937Z,14.78
2022-09-10T22:15:44.476Z,14.80
2022-09-10T22:22:40.061Z,14.80
2022-09-10T22:29:25.454Z,14.80
2022-09-10T22:36:28.469Z,14.80
2022-09-10T22:43:31.007Z,14.80
2022-09-10T22:50:26.174Z,14.80
2022-09-10T22:57:15.582Z,14.80
2022-09-10T23:04:17.230Z,14.90
2022-09-10T23:11:21.087Z,14.90
2022-09-10T23:18:06.224Z,14.98
2022-09-10T23:25:09.227Z,15.00
2022-09-10T23:32:18.009Z,15.00
2022-09-10T23:39:21.141Z,15.10
2022-09-10T23:46:24.104Z,15.08
2022-09-10T23:53:26.863Z,15.10
